createdAt,value
2022-07-27T00:01:03.907Z,21.41
2022-07-27T00:05:07.946Z,21.40
2022-07-27T00:09:12.097Z,21.37
2022-07-27T00:13:15.705Z,21.35
2022-07-27T00:17:23.911Z,21.36
2022-07-27T00:21:27.163Z,21.39
2022-07-27T00:25:31.002Z,21.37
2022-07-27T00:29:34.111Z,21.38
2022-07-27T00:33:38.692Z,21.38
2022-07-27T00:37:42.102Z,21.39
2022-07-27T00:41:45.553Z,21.40
2022-07-27T00:45:48.956Z,21.41
2022-07-27T00:49:53.693Z,21.39
2022-07-27T00:53:57.987Z,21.38
2022-07-27T00:58:01.697Z,21.36
2022-07-27T01:02:05.335Z,21.33
2022-07-27T01:06:16.899Z,21.35
2022-07-27T01:10:30.186Z,21.35
2022-07-27T01:14:33.648Z,21.34
2022-07-27T01:18:39.248Z,21.33
2022-07-27T01:22:43.751Z,21.30
2022-07-27T01:26:47.496Z,21.28
2022-07-27T01:30:51.550Z,21.23
2022-07-27T01:34:54.687Z,21.23
2022-07-27T01:38:59.501Z,21.26
2022-07-27T01:43:02.607Z,21.24
2022-07-27T01:47:14.018Z,21.24
2022-07-27T01:51:17.930Z,21.23
2022-07-27T01:55:22.585Z,21.23
2022-07-27T01:59:25.637Z,21.24
2022-07-27T02:03:28.763Z,21.27
2022-07-27T02:07:32.067Z,21.29
2022-07-27T02:11:54.026Z,21.27
2022-07-27T02:15:58.006Z,21.25
2022-07-27T02:20:01.545Z,21.25
2022-07-27T02:24:04.802Z,21.24
2022-07-27T02:28:09.492Z,21.23
2022-07-27T02:32:12.604Z,21.20
2022-07-27T02:36:16.523Z,21.17
2022-07-27T02:40:20.421Z,21.15
2022-07-27T02:44:26.981Z,21.11
2022-07-27T02:48:30.165Z,21.06
2022-07-27T02:52:33.995Z,21.05
2022-07-27T02:56:37.146Z,21.02
2022-07-27T03:00:41.807Z,20.97
2022-07-27T03:04:45.224Z,20.94
2022-07-27T03:08:48.576Z,20.93
2022-07-27T03:12:52.028Z,20.94
2022-07-27T03:16:56.792Z,20.94
2022-07-27T03:21:00.057Z,20.92
2022-07-27T03:25:03.438Z,20.93
2022-07-27T03:29:06.768Z,20.91
2022-07-27T03:33:11.256Z,20.86
2022-07-27T03:37:15.294Z,20.80
2022-07-27T03:41:18.403Z,20.77
2022-07-27T03:45:21.549Z,20.75
2022-07-27T03:49:26.343Z,20.75
2022-07-27T03:53:29.507Z,20.75
2022-07-27T03:57:32.631Z,20.74
2022-07-27T04:01:36.025Z,20.75
2022-07-27T04:05:40.655Z,20.75
2022-07-27T04:09:44.031Z,20.75
2022-07-27T04:13:50.913Z,20.75
2022-07-27T04:17:57.275Z,20.76
2022-07-27T04:22:02.264Z,20.75
2022-07-27T04:26:05.375Z,20.75
2022-07-27T04:30:10.010Z,20.75
2022-07-27T04:34:13.325Z,20.76
2022-07-27T04:38:17.873Z,20.75
2022-07-27T04:42:21.168Z,20.73
2022-07-27T04:46:24.518Z,20.72
2022-07-27T04:50:27.730Z,20.75
2022-07-27T04:54:35.783Z,20.77
2022-07-27T04:58:39.195Z,20.78
2022-07-27T05:02:43.662Z,20.83
2022-07-27T05:06:46.842Z,20.86
2022-07-27T05:10:51.311Z,20.91
2022-07-27T05:14:54.552Z,20.96
2022-07-27T05:18:58.447Z,21.01
2022-07-27T05:23:01.537Z,21.10
2022-07-27T05:27:06.894Z,21.18
2022-07-27T05:31:10.157Z,21.29
2022-07-27T05:35:13.766Z,21.42
2022-07-27T05:39:17.344Z,21.58
2022-07-27T05:43:22.183Z,21.76
2022-07-27T05:47:25.579Z,21.91
2022-07-27T05:51:30.907Z,22.05
2022-07-27T05:55:34.108Z,22.13
2022-07-27T05:59:38.639Z,22.25
2022-07-27T06:03:42.001Z,22.43
2022-07-27T06:08:00.670Z,22.65
2022-07-27T06:12:04.381Z,22.86
2022-07-27T06:16:09.559Z,23.04
2022-07-27T06:20:13.337Z,23.20
2022-07-27T06:24:16.595Z,23.39
2022-07-27T06:28:20.185Z,23.55
2022-07-27T06:32:24.762Z,23.75
2022-07-27T06:36:27.853Z,23.92
2022-07-27T06:40:32.284Z,24.10
2022-07-27T06:44:35.393Z,24.30
2022-07-27T06:48:40.317Z,24.42
2022-07-27T06:52:43.650Z,24.56
2022-07-27T06:56:47.232Z,24.71
2022-07-27T07:00:50.628Z,24.74
2022-07-27T07:04:55.501Z,24.80
2022-07-27T07:08:58.771Z,24.98
2022-07-27T07:13:06.562Z,25.14
2022-07-27T07:17:09.892Z,25.26
2022-07-27T07:21:16.954Z,25.41
2022-07-27T07:25:20.537Z,25.49
2022-07-27T07:29:23.673Z,25.69
2022-07-27T07:33:27.016Z,25.85
2022-07-27T07:37:33.963Z,26.04
2022-07-27T07:41:37.609Z,26.05
2022-07-27T07:45:51.475Z,26.09
2022-07-27T07:49:55.260Z,26.06
2022-07-27T07:53:59.785Z,26.04
2022-07-27T07:58:02.831Z,26.06
2022-07-27T08:02:06.268Z,26.13
2022-07-27T08:06:09.464Z,26.26
2022-07-27T08:10:16.245Z,26.36
2022-07-27T08:14:19.324Z,26.49
2022-07-27T08:18:22.557Z,26.69
2022-07-27T08:22:25.752Z,26.90
2022-07-27T08:26:30.369Z,27.03
2022-07-27T08:30:33.749Z,27.17
2022-07-27T08:34:37.135Z,27.31
2022-07-27T08:38:40.233Z,27.43
2022-07-27T08:42:45.215Z,27.52
2022-07-27T08:46:53.137Z,27.60
2022-07-27T08:50:56.905Z,27.47
2022-07-27T08:55:00.278Z,27.36
2022-07-27T08:59:07.189Z,27.50
2022-07-27T09:03:18.436Z,27.55
2022-07-27T09:07:31.526Z,27.79
2022-07-27T09:11:36.618Z,27.96
2022-07-27T09:16:15.796Z,28.04
2022-07-27T09:20:17.408Z,28.08
2022-07-27T09:24:45.488Z,28.15
2022-07-27T09:28:46.146Z,28.33
2022-07-27T09:32:59.353Z,28.47
2022-07-27T09:37:05.752Z,28.60
2022-07-27T09:41:09.548Z,28.49
2022-07-27T09:45:34.454Z,28.37
2022-07-27T09:49:40.024Z,28.18
2022-07-27T09:53:44.355Z,28.09
2022-07-27T09:57:54.806Z,28.19
2022-07-27T10:02:00.552Z,28.36
2022-07-27T10:06:05.534Z,28.44
2022-07-27T10:10:10.603Z,28.57
2022-07-27T10:14:14.454Z,28.69
2022-07-27T10:18:25.743Z,28.77
2022-07-27T10:22:51.467Z,28.90
2022-07-27T10:26:55.021Z,28.92
2022-07-27T10:31:17.534Z,29.13
2022-07-27T10:35:34.112Z,29.35
2022-07-27T10:39:41.095Z,29.21
2022-07-27T10:43:44.329Z,28.93
2022-07-27T10:47:50.390Z,28.80
2022-07-27T10:51:54.654Z,28.84
2022-07-27T10:55:59.425Z,28.83
2022-07-27T11:00:09.934Z,28.90
2022-07-27T11:04:15.693Z,28.95
2022-07-27T11:08:47.104Z,28.97
2022-07-27T11:12:50.767Z,29.00
2022-07-27T11:16:56.623Z,29.03
2022-07-27T11:21:19.075Z,28.93
2022-07-27T11:25:25.304Z,28.78
2022-07-27T11:29:35.698Z,28.64
2022-07-27T11:33:57.638Z,28.56
2022-07-27T11:38:03.542Z,28.52
2022-07-27T11:42:12.345Z,28.44
2022-07-27T11:46:24.658Z,28.36
2022-07-27T11:50:27.893Z,28.30
2022-07-27T11:54:33.246Z,28.18
2022-07-27T11:59:15.856Z,28.15
2022-07-27T12:03:32.221Z,28.13
2022-07-27T12:07:49.406Z,28.08
2022-07-27T12:12:03.539Z,27.84
2022-07-27T12:16:07.893Z,27.55
2022-07-27T12:20:14.164Z,27.30
2022-07-27T12:24:18.004Z,27.09
2022-07-27T12:28:25.697Z,26.89
2022-07-27T12:32:31.024Z,26.77
2022-07-27T12:36:42.435Z,26.74
2022-07-27T12:40:48.318Z,26.77
2022-07-27T12:44:53.426Z,26.79
2022-07-27T12:48:56.882Z,26.82
2022-07-27T12:53:01.886Z,26.88
2022-07-27T12:57:05.374Z,26.97
2022-07-27T13:01:08.684Z,26.99
2022-07-27T13:05:13.711Z,26.93
2022-07-27T13:09:18.442Z,26.82
2022-07-27T13:13:24.540Z,26.78
2022-07-27T13:17:28.064Z,26.71
2022-07-27T13:21:31.458Z,26.63
2022-07-27T13:25:41.091Z,26.63
2022-07-27T13:29:46.817Z,26.68
2022-07-27T13:33:50.012Z,26.71
2022-07-27T13:37:53.391Z,26.70
2022-07-27T13:41:58.382Z,26.66
2022-07-27T13:46:03.302Z,26.64
2022-07-27T13:50:15.052Z,26.58
2022-07-27T13:54:20.442Z,26.53
2022-07-27T13:58:25.001Z,26.51
2022-07-27T14:02:28.221Z,26.55
2022-07-27T14:06:31.575Z,26.57
2022-07-27T14:10:41.660Z,26.59
2022-07-27T14:14:46.175Z,26.60
2022-07-27T14:18:49.445Z,26.60
2022-07-27T14:22:52.819Z,26.60
2022-07-27T14:26:57.594Z,26.58
2022-07-27T14:31:05.274Z,26.56
2022-07-27T14:35:10.797Z,26.51
2022-07-27T14:39:14.495Z,26.46
2022-07-27T14:43:18.687Z,26.42
2022-07-27T14:47:23.402Z,26.37
2022-07-27T14:51:26.544Z,26.30
2022-07-27T14:55:29.680Z,26.28
2022-07-27T14:59:33.091Z,26.24
2022-07-27T15:03:37.901Z,26.21
2022-07-27T15:07:41.757Z,26.15
2022-07-27T15:11:44.865Z,26.10
2022-07-27T15:15:49.547Z,26.08
2022-07-27T15:19:54.252Z,26.05
2022-07-27T15:23:57.604Z,26.01
2022-07-27T15:28:00.832Z,25.97
2022-07-27T15:32:04.635Z,25.97
2022-07-27T15:36:09.346Z,25.96
2022-07-27T15:40:30.061Z,25.95
2022-07-27T15:44:33.745Z,25.98
2022-07-27T15:48:37.251Z,25.98
2022-07-27T15:52:42.048Z,25.97
2022-07-27T15:56:45.189Z,25.93
2022-07-27T16:00:50.125Z,25.93
2022-07-27T16:04:54.483Z,25.93
2022-07-27T16:08:59.229Z,25.91
2022-07-27T16:13:02.916Z,25.86
2022-07-27T16:17:06.341Z,25.86
2022-07-27T16:21:09.513Z,25.87
2022-07-27T16:25:14.282Z,25.83
2022-07-27T16:29:18.300Z,25.82
2022-07-27T16:33:21.810Z,25.79
2022-07-27T16:37:25.124Z,25.77
2022-07-27T16:41:29.900Z,25.76
2022-07-27T16:45:33.588Z,25.75
2022-07-27T16:49:37.209Z,25.76
2022-07-27T16:53:42.356Z,25.78
2022-07-27T16:57:46.946Z,25.77
2022-07-27T17:01:51.303Z,25.81
2022-07-27T17:05:54.582Z,25.88
2022-07-27T17:09:57.909Z,25.92
2022-07-27T17:14:02.731Z,25.94
2022-07-27T17:18:07.007Z,25.97
2022-07-27T17:22:11.060Z,26.01
2022-07-27T17:26:14.832Z,26.01
2022-07-27T17:30:19.935Z,26.02
2022-07-27T17:34:23.259Z,26.01
2022-07-27T17:38:26.335Z,25.97
2022-07-27T17:42:29.651Z,25.96
2022-07-27T17:46:38.662Z,25.95
2022-07-27T17:51:03.596Z,25.93
2022-07-27T17:55:10.230Z,25.93
2022-07-27T17:59:36.038Z,25.90
2022-07-27T18:03:38.144Z,25.84
2022-07-27T18:07:41.276Z,25.78
2022-07-27T18:11:44.785Z,25.75
2022-07-27T18:15:48.515Z,25.68
2022-07-27T18:19:53.254Z,25.60
2022-07-27T18:23:57.580Z,25.52
2022-07-27T18:28:01.366Z,25.47
2022-07-27T18:32:04.485Z,25.48
2022-07-27T18:36:09.544Z,25.44
2022-07-27T18:40:13.363Z,25.36
2022-07-27T18:44:16.457Z,25.29
2022-07-27T18:48:19.723Z,25.22
2022-07-27T18:52:24.671Z,25.04
2022-07-27T18:56:27.791Z,24.87
2022-07-27T19:00:31.392Z,24.76
2022-07-27T19:04:35.070Z,24.65
2022-07-27T19:08:41.476Z,24.55
2022-07-27T19:12:45.581Z,24.47
2022-07-27T19:16:48.710Z,24.40
2022-07-27T19:20:51.932Z,24.31
2022-07-27T19:24:56.581Z,24.23
2022-07-27T19:29:00.192Z,24.17
2022-07-27T19:33:04.307Z,24.11
2022-07-27T19:37:07.895Z,24.04
2022-07-27T19:41:12.921Z,23.98
2022-07-27T19:45:16.144Z,23.93
2022-07-27T19:49:19.413Z,23.86
2022-07-27T19:53:22.822Z,23.78
2022-07-27T19:57:27.624Z,23.72
2022-07-27T20:01:31.055Z,23.65
2022-07-27T20:05:34.861Z,23.59
2022-07-27T20:09:38.244Z,23.53
2022-07-27T20:13:43.016Z,23.46
2022-07-27T20:17:46.661Z,23.39
2022-07-27T20:21:49.799Z,23.35
2022-07-27T20:25:53.010Z,23.30
2022-07-27T20:29:57.731Z,23.23
2022-07-27T20:34:01.335Z,23.18
2022-07-27T20:38:04.845Z,23.14
2022-07-27T20:42:08.478Z,23.10
2022-07-27T20:46:13.252Z,23.04
2022-07-27T20:50:19.196Z,22.99
2022-07-27T20:54:29.537Z,22.88
2022-07-27T20:58:34.798Z,22.80
2022-07-27T21:02:40.017Z,22.70
2022-07-27T21:06:44.596Z,22.59
2022-07-27T21:10:48.315Z,22.52
2022-07-27T21:14:53.022Z,22.42
2022-07-27T21:18:57.994Z,22.38
2022-07-27T21:23:18.575Z,22.34
2022-07-27T21:27:21.779Z,22.32
2022-07-27T21:31:25.090Z,22.31
2022-07-27T21:35:30.023Z,22.29
2022-07-27T21:39:33.381Z,22.25
2022-07-27T21:43:36.668Z,22.21
2022-07-27T21:47:39.735Z,22.18
2022-07-27T21:51:44.526Z,22.13
2022-07-27T21:55:47.941Z,22.11
2022-07-27T21:59:51.072Z,22.07
2022-07-27T22:03:54.533Z,22.02
2022-07-27T22:08:00.238Z,22.00
2022-07-27T22:12:03.481Z,21.93
2022-07-27T22:16:07.577Z,21.86
2022-07-27T22:20:12.153Z,21.81
2022-07-27T22:24:17.226Z,21.73
2022-07-27T22:28:24.299Z,21.66
2022-07-27T22:32:29.494Z,21.58
2022-07-27T22:36:33.529Z,21.56
2022-07-27T22:40:38.115Z,21.51
2022-07-27T22:44:42.460Z,21.47
2022-07-27T22:48:45.698Z,21.44
2022-07-27T22:52:49.432Z,21.42
2022-07-27T22:56:54.569Z,21.35
2022-07-27T23:00:59.869Z,21.32
2022-07-27T23:05:03.321Z,21.28
2022-07-27T23:09:06.730Z,21.27
2022-07-27T23:13:12.202Z,21.24
2022-07-27T23:17:15.507Z,21.24
2022-07-27T23:21:18.859Z,21.24
2022-07-27T23:25:22.196Z,21.22
2022-07-27T23:29:27.119Z,21.18
2022-07-27T23:33:30.390Z,21.14
2022-07-27T23:37:33.527Z,21.10
2022-07-27T23:41:36.957Z,20.99
2022-07-27T23:45:41.454Z,20.96
2022-07-27T23:49:44.681Z,20.91
2022-07-27T23:53:48.126Z,20.86
2022-07-27T23:57:51.314Z,20.81
